Aviation Digital Data Service (ADDS)

Output produced by METARs form (0019 UTC 25 July 2016)
found at http://aviationweather.gov/adds/metars/
 
KRUT 242320Z 2500/2524 13005KT P6SM SCT250 
     FM250300 13008KT P6SM SCT150 BKN250 
     FM251500 20004KT P6SM FEW090 BKN200 
     FM252200 21006KT P6SM VCSH SCT040 BKN070 AMD LTD TO CLD VIS AND WIND